sensor_id;sensor_type;location;lat;lon;timestamp;pressure;altitude;pressure_sealevel;temperature;humidity
62293;BME280;48292;47.724;18.992;2022-09-11T03:36:20;97104.05;;;12.51;85.88
62293;BME280;48292;47.724;18.992;2022-09-11T03:41:22;97104.05;;;12.51;85.88
62293;BME280;48292;47.724;18.992;2022-09-11T03:46:23;97098.28;;;12.4;86.11
62293;BME280;48292;47.724;18.992;2022-09-11T03:51:25;97098.28;;;12.4;86.11
62293;BME280;48292;47.724;18.992;2022-09-11T03:56:27;97100.8;;;12.61;85.06
62293;BME280;48292;47.724;18.992;2022-09-11T04:01:29;97106.75;;;12.36;87.35
62293;BME280;48292;47.724;18.992;2022-09-11T04:06:30;97106.75;;;12.36;87.35
62293;BME280;48292;47.724;18.992;2022-09-11T04:11:32;97114.19;;;12.29;87.23
62293;BME280;48292;47.724;18.992;2022-09-11T04:16:38;97114.19;;;12.29;87.23
62293;BME280;48292;47.724;18.992;2022-09-11T04:21:40;97120.23;;;12.24;88.46
62293;BME280;48292;47.724;18.992;2022-09-11T04:26:42;97120.23;;;12.24;88.46
62293;BME280;48292;47.724;18.992;2022-09-11T04:31:43;97125.41;;;12.05;90.44
62293;BME280;48292;47.724;18.992;2022-09-11T04:36:45;97125.41;;;12.05;90.44
62293;BME280;48292;47.724;18.992;2022-09-11T04:41:47;97115.34;;;12.03;89.66
62293;BME280;48292;47.724;18.992;2022-09-11T04:46:49;97115.34;;;12.03;89.66
62293;BME280;48292;47.724;18.992;2022-09-11T04:51:51;97113.81;;;12.09;90.01
62293;BME280;48292;47.724;18.992;2022-09-11T04:56:53;97113.81;;;12.09;90.01
62293;BME280;48292;47.724;18.992;2022-09-11T05:01:54;97116.79;;;11.98;90.78
62293;BME280;48292;47.724;18.992;2022-09-11T05:06:56;97116.79;;;11.98;90.78
62293;BME280;48292;47.724;18.992;2022-09-11T05:11:58;97115.7;;;12.26;90.4
62293;BME280;48292;47.724;18.992;2022-09-11T05:17:00;97121.33;;;12.64;87.94
62293;BME280;48292;47.724;18.992;2022-09-11T05:22:01;97121.33;;;12.64;87.94
62293;BME280;48292;47.724;18.992;2022-09-11T05:27:03;97123.98;;;12.91;87.14
62293;BME280;48292;47.724;18.992;2022-09-11T05:32:05;97123.98;;;12.91;87.14
62293;BME280;48292;47.724;18.992;2022-09-11T05:37:07;97130.88;;;13.35;85.27
62293;BME280;48292;47.724;18.992;2022-09-11T05:42:08;97130.88;;;13.35;85.27
62293;BME280;48292;47.724;18.992;2022-09-11T05:47:10;97118.83;;;13.79;82.92
62293;BME280;48292;47.724;18.992;2022-09-11T05:52:12;97118.83;;;13.79;82.92
62293;BME280;48292;47.724;18.992;2022-09-11T05:57:13;97121.89;;;13.64;82.93
62293;BME280;48292;47.724;18.992;2022-09-11T06:02:15;97121.89;;;13.64;82.93
62293;BME280;48292;47.724;18.992;2022-09-11T06:07:17;97113.06;;;13.57;83.48
62293;BME280;48292;47.724;18.992;2022-09-11T06:12:19;97113.06;;;13.57;83.48
62293;BME280;48292;47.724;18.992;2022-09-11T06:17:21;97116.68;;;13.82;82.82
62293;BME280;48292;47.724;18.992;2022-09-11T06:22:22;97116.68;;;13.82;82.82
62293;BME280;48292;47.724;18.992;2022-09-11T06:27:25;97131.7;;;13.88;82.82
62293;BME280;48292;47.724;18.992;2022-09-11T06:32:27;97128.63;;;14.01;81.62
62293;BME280;48292;47.724;18.992;2022-09-11T06:37:29;97128.63;;;14.01;81.62
62293;BME280;48292;47.724;18.992;2022-09-11T06:42:31;97137.59;;;14.23;81.18
62293;BME280;48292;47.724;18.992;2022-09-11T06:47:33;97137.59;;;14.23;81.18
62293;BME280;48292;47.724;18.992;2022-09-11T06:52:35;97130.78;;;14.3;80.41
62293;BME280;48292;47.724;18.992;2022-09-11T06:57:36;97130.78;;;14.3;80.41
62293;BME280;48292;47.724;18.992;2022-09-11T07:02:43;97122.0;;;14.18;80.44
62293;BME280;48292;47.724;18.992;2022-09-11T07:07:44;97122.0;;;14.18;80.44
62293;BME280;48292;47.724;18.992;2022-09-11T07:12:46;97111.97;;;14.35;80.72
62293;BME280;48292;47.724;18.992;2022-09-11T07:17:48;97111.97;;;14.35;80.72
62293;BME280;48292;47.724;18.992;2022-09-11T07:22:50;97128.37;;;14.57;80.88
62293;BME280;48292;47.724;18.992;2022-09-11T07:27:51;97128.37;;;14.57;80.88
62293;BME280;48292;47.724;18.992;2022-09-11T07:32:53;97116.26;;;15.11;79.13
62293;BME280;48292;47.724;18.992;2022-09-11T07:37:55;97116.26;;;15.11;79.13
62293;BME280;48292;47.724;18.992;2022-09-11T07:42:56;97101.73;;;15.64;75.43
62293;BME280;48292;47.724;18.992;2022-09-11T07:47:58;97101.73;;;15.64;75.43
62293;BME280;48292;47.724;18.992;2022-09-11T07:53:00;97115.08;;;15.52;75.13
62293;BME280;48292;47.724;18.992;2022-09-11T07:58:02;97115.28;;;15.9;74.94
62293;BME280;48292;47.724;18.992;2022-09-11T08:03:04;97115.28;;;15.9;74.94
62293;BME280;48292;47.724;18.992;2022-09-11T08:08:05;97118.87;;;16.24;72.94
62293;BME280;48292;47.724;18.992;2022-09-11T08:13:07;97118.87;;;16.24;72.94
62293;BME280;48292;47.724;18.992;2022-09-11T08:18:11;97124.63;;;15.74;75.47
62293;BME280;48292;47.724;18.992;2022-09-11T08:23:12;97124.63;;;15.74;75.47
62293;BME280;48292;47.724;18.992;2022-09-11T08:28:14;97131.08;;;15.7;76.86
62293;BME280;48292;47.724;18.992;2022-09-11T08:33:16;97131.08;;;15.7;76.86
62293;BME280;48292;47.724;18.992;2022-09-11T08:38:17;97142.9;;;15.61;77.63
62293;BME280;48292;47.724;18.992;2022-09-11T08:43:20;97142.9;;;15.61;77.63
62293;BME280;48292;47.724;18.992;2022-09-11T08:48:24;97129.77;;;15.77;76.98
62293;BME280;48292;47.724;18.992;2022-09-11T08:53:28;97129.77;;;15.77;76.98
62293;BME280;48292;47.724;18.992;2022-09-11T08:58:32;97135.02;;;15.74;77.1
62293;BME280;48292;47.724;18.992;2022-09-11T09:03:41;97135.02;;;15.74;77.1
62293;BME280;48292;47.724;18.992;2022-09-11T09:08:48;97133.02;;;16.96;73.07
62293;BME280;48292;47.724;18.992;2022-09-11T09:13:56;97129.75;;;18.22;68.15
62293;BME280;48292;47.724;18.992;2022-09-11T09:19:01;97129.75;;;18.22;68.15
62293;BME280;48292;47.724;18.992;2022-09-11T09:24:08;97122.8;;;17.77;67.85
62293;BME280;48292;47.724;18.992;2022-09-11T09:29:16;97122.8;;;17.77;67.85
62293;BME280;48292;47.724;18.992;2022-09-11T09:34:20;97129.1;;;18.58;65.09
62293;BME280;48292;47.724;18.992;2022-09-11T09:39:22;97129.1;;;18.58;65.09
62293;BME280;48292;47.724;18.992;2022-09-11T09:44:28;97136.33;;;18.51;63.59
62293;BME280;48292;47.724;18.992;2022-09-11T09:49:33;97136.33;;;18.51;63.59
62293;BME280;48292;47.724;18.992;2022-09-11T09:54:36;97115.16;;;19.44;60.64
62293;BME280;48292;47.724;18.992;2022-09-11T09:59:40;97115.16;;;19.44;60.64
62293;BME280;48292;47.724;18.992;2022-09-11T10:04:42;97116.84;;;19.1;59.06
62293;BME280;48292;47.724;18.992;2022-09-11T10:09:44;97116.84;;;19.1;59.06
62293;BME280;48292;47.724;18.992;2022-09-11T10:14:49;97106.46;;;20.07;58.42
62293;BME280;48292;47.724;18.992;2022-09-11T10:19:54;97109.42;;;19.68;59.11
62293;BME280;48292;47.724;18.992;2022-09-11T10:25:00;97109.42;;;19.68;59.11
62293;BME280;48292;47.724;18.992;2022-09-11T10:30:02;97112.82;;;19.85;58.73
62293;BME280;48292;47.724;18.992;2022-09-11T10:35:07;97112.82;;;19.85;58.73
62293;BME280;48292;47.724;18.992;2022-09-11T10:40:17;97109.78;;;19.0;60.85
62293;BME280;48292;47.724;18.992;2022-09-11T10:45:20;97109.78;;;19.0;60.85
62293;BME280;48292;47.724;18.992;2022-09-11T10:50:24;97098.32;;;20.24;54.2
62293;BME280;48292;47.724;18.992;2022-09-11T10:55:26;97098.32;;;20.24;54.2
62293;BME280;48292;47.724;18.992;2022-09-11T11:00:30;97102.35;;;20.83;53.73
62293;BME280;48292;47.724;18.992;2022-09-11T11:05:35;97102.35;;;20.83;53.73
62293;BME280;48292;47.724;18.992;2022-09-11T11:10:44;97099.11;;;21.11;52.31
62293;BME280;48292;47.724;18.992;2022-09-11T11:15:51;97099.11;;;21.11;52.31
62293;BME280;48292;47.724;18.992;2022-09-11T11:20:58;97105.77;;;19.02;57.71
62293;BME280;48292;47.724;18.992;2022-09-11T11:26:08;97095.59;;;18.83;58.97
62293;BME280;48292;47.724;18.992;2022-09-11T11:31:15;97095.59;;;18.83;58.97
62293;BME280;48292;47.724;18.992;2022-09-11T11:36:22;97094.27;;;20.1;53.62
62293;BME280;48292;47.724;18.992;2022-09-11T11:41:26;97094.27;;;20.1;53.62
62293;BME280;48292;47.724;18.992;2022-09-11T11:46:30;97093.64;;;18.75;56.85
62293;BME280;48292;47.724;18.992;2022-09-11T11:51:37;97093.64;;;18.75;56.85
62293;BME280;48292;47.724;18.992;2022-09-11T11:56:43;97084.18;;;19.9;55.4
62293;BME280;48292;47.724;18.992;2022-09-11T12:01:49;97084.18;;;19.9;55.4
62293;BME280;48292;47.724;18.992;2022-09-11T12:06:52;97098.63;;;18.9;58.25
62293;BME280;48292;47.724;18.992;2022-09-11T12:11:54;97098.63;;;18.9;58.25
62293;BME280;48292;47.724;18.992;2022-09-11T12:16:56;97065.39;;;20.46;53.67
62293;BME280;48292;47.724;18.992;2022-09-11T12:22:05;97065.39;;;20.46;53.67
62293;BME280;48292;47.724;18.992;2022-09-11T12:37:29;97069.45;;;20.66;52.58
62293;BME280;48292;47.724;18.992;2022-09-11T12:47:43;97056.9;;;21.29;51.38
62293;BME280;48292;47.724;18.992;2022-09-11T12:52:46;97062.94;;;21.21;50.71
62293;BME280;48292;47.724;18.992;2022-09-11T12:57:49;97062.94;;;21.21;50.71
62293;BME280;48292;47.724;18.992;2022-09-11T13:02:51;97052.38;;;22.12;48.53
62293;BME280;48292;47.724;18.992;2022-09-11T13:07:55;97052.38;;;22.12;48.53
62293;BME280;48292;47.724;18.992;2022-09-11T13:12:59;97045.94;;;20.91;52.7
62293;BME280;48292;47.724;18.992;2022-09-11T13:23:10;97066.95;;;20.89;52.44
62293;BME280;48292;47.724;18.992;2022-09-11T13:28:13;97066.95;;;20.89;52.44
62293;BME280;48292;47.724;18.992;2022-09-11T13:33:20;97034.3;;;21.21;51.49
62293;BME280;48292;47.724;18.992;2022-09-11T13:38:23;97036.73;;;21.74;49.27
62293;BME280;48292;47.724;18.992;2022-09-11T13:43:27;97036.73;;;21.74;49.27
62293;BME280;48292;47.724;18.992;2022-09-11T13:48:31;97033.8;;;21.71;48.49
62293;BME280;48292;47.724;18.992;2022-09-11T13:53:33;97033.8;;;21.71;48.49
62293;BME280;48292;47.724;18.992;2022-09-11T13:58:35;97018.2;;;19.93;54.61
62293;BME280;48292;47.724;18.992;2022-09-11T14:03:37;97018.2;;;19.93;54.61
62293;BME280;48292;47.724;18.992;2022-09-11T14:08:47;97029.88;;;18.05;63.77
62293;BME280;48292;47.724;18.992;2022-09-11T14:13:49;97029.88;;;18.05;63.77
62293;BME280;48292;47.724;18.992;2022-09-11T14:18:53;97061.44;;;16.22;65.88
62293;BME280;48292;47.724;18.992;2022-09-11T14:23:57;97061.44;;;16.22;65.88
62293;BME280;48292;47.724;18.992;2022-09-11T14:29:00;97057.11;;;15.43;72.07
62293;BME280;48292;47.724;18.992;2022-09-11T14:39:10;97062.16;;;15.98;71.12
62293;BME280;48292;47.724;18.992;2022-09-11T14:44:13;97054.37;;;16.66;69.76
62293;BME280;48292;47.724;18.992;2022-09-11T14:49:15;97054.37;;;16.66;69.76
62293;BME280;48292;47.724;18.992;2022-09-11T14:54:17;97047.42;;;18.12;65.59
62293;BME280;48292;47.724;18.992;2022-09-11T14:59:20;97047.42;;;18.12;65.59
62293;BME280;48292;47.724;18.992;2022-09-11T15:04:22;97037.73;;;19.46;60.42
62293;BME280;48292;47.724;18.992;2022-09-11T15:09:23;97037.73;;;19.46;60.42
62293;BME280;48292;47.724;18.992;2022-09-11T15:14:25;97037.03;;;19.76;59.78
62293;BME280;48292;47.724;18.992;2022-09-11T15:19:31;97037.03;;;19.76;59.78
62293;BME280;48292;47.724;18.992;2022-09-11T15:24:33;97063.06;;;18.06;64.5
62293;BME280;48292;47.724;18.992;2022-09-11T15:29:35;97063.06;;;18.06;64.5
62293;BME280;48292;47.724;18.992;2022-09-11T15:34:37;97065.86;;;17.37;70.38
62293;BME280;48292;47.724;18.992;2022-09-11T15:39:38;97065.86;;;17.37;70.38
62293;BME280;48292;47.724;18.992;2022-09-11T15:44:40;97073.94;;;16.11;76.89
62293;BME280;48292;47.724;18.992;2022-09-11T15:49:42;97073.94;;;16.11;76.89
62293;BME280;48292;47.724;18.992;2022-09-11T15:54:44;97061.77;;;16.52;73.09
62293;BME280;48292;47.724;18.992;2022-09-11T15:59:46;97063.85;;;16.59;73.34
62293;BME280;48292;47.724;18.992;2022-09-11T16:04:47;97063.85;;;16.59;73.34
62293;BME280;48292;47.724;18.992;2022-09-11T16:09:53;97053.63;;;16.44;77.02
62293;BME280;48292;47.724;18.992;2022-09-11T16:14:55;97053.63;;;16.44;77.02
62293;BME280;48292;47.724;18.992;2022-09-11T16:19:56;97063.25;;;16.0;78.11
62293;BME280;48292;47.724;18.992;2022-09-11T16:24:58;97063.25;;;16.0;78.11
62293;BME280;48292;47.724;18.992;2022-09-11T16:30:00;97055.96;;;15.89;76.98
62293;BME280;48292;47.724;18.992;2022-09-11T16:35:06;97055.96;;;15.89;76.98
62293;BME280;48292;47.724;18.992;2022-09-11T16:40:08;97064.2;;;15.68;79.2
62293;BME280;48292;47.724;18.992;2022-09-11T16:45:11;97064.2;;;15.68;79.2
62293;BME280;48292;47.724;18.992;2022-09-11T16:50:12;97070.83;;;15.55;77.41
62293;BME280;48292;47.724;18.992;2022-09-11T16:55:14;97070.83;;;15.55;77.41
62293;BME280;48292;47.724;18.992;2022-09-11T17:00:16;97060.5;;;15.43;77.96
62293;BME280;48292;47.724;18.992;2022-09-11T17:05:18;97060.5;;;15.43;77.96
62293;BME280;48292;47.724;18.992;2022-09-11T17:10:19;97059.95;;;15.31;79.05
62293;BME280;48292;47.724;18.992;2022-09-11T17:15:21;97061.39;;;15.38;79.58
62293;BME280;48292;47.724;18.992;2022-09-11T17:20:23;97061.39;;;15.38;79.58
62293;BME280;48292;47.724;18.992;2022-09-11T17:25:25;97053.91;;;15.44;80.15
62293;BME280;48292;47.724;18.992;2022-09-11T17:30:27;97053.91;;;15.44;80.15
62293;BME280;48292;47.724;18.992;2022-09-11T17:35:28;97056.97;;;15.54;79.8
62293;BME280;48292;47.724;18.992;2022-09-11T17:40:30;97056.97;;;15.54;79.8
62293;BME280;48292;47.724;18.992;2022-09-11T17:45:32;97083.47;;;15.15;84.72
62293;BME280;48292;47.724;18.992;2022-09-11T17:50:35;97083.47;;;15.15;84.72
62293;BME280;48292;47.724;18.992;2022-09-11T17:55:37;97097.21;;;14.82;87.62
62293;BME280;48292;47.724;18.992;2022-09-11T18:00:39;97097.21;;;14.82;87.62
62293;BME280;48292;47.724;18.992;2022-09-11T18:05:42;97101.29;;;14.61;88.02
62293;BME280;48292;47.724;18.992;2022-09-11T18:10:48;97101.29;;;14.61;88.02
62293;BME280;48292;47.724;18.992;2022-09-11T18:15:50;97108.01;;;14.33;87.99
62293;BME280;48292;47.724;18.992;2022-09-11T18:20:52;97111.84;;;14.23;86.89
62293;BME280;48292;47.724;18.992;2022-09-11T18:25:55;97111.84;;;14.23;86.89
62293;BME280;48292;47.724;18.992;2022-09-11T18:31:01;97117.83;;;14.18;85.54
62293;BME280;48292;47.724;18.992;2022-09-11T18:36:04;97117.83;;;14.18;85.54
62293;BME280;48292;47.724;18.992;2022-09-11T18:41:08;97114.05;;;13.99;86.13
62293;BME280;48292;47.724;18.992;2022-09-11T18:46:11;97114.05;;;13.99;86.13
62293;BME280;48292;47.724;18.992;2022-09-11T18:51:13;97120.86;;;13.91;85.72
62293;BME280;48292;47.724;18.992;2022-09-11T18:56:16;97120.86;;;13.91;85.72
62293;BME280;48292;47.724;18.992;2022-09-11T19:01:20;97120.3;;;13.74;87.15
62293;BME280;48292;47.724;18.992;2022-09-11T19:06:24;97120.3;;;13.74;87.15
62293;BME280;48292;47.724;18.992;2022-09-11T19:11:27;97129.2;;;13.68;88.27
62293;BME280;48292;47.724;18.992;2022-09-11T19:16:30;97129.2;;;13.68;88.27
62293;BME280;48292;47.724;18.992;2022-09-11T19:21:33;97117.83;;;13.67;87.17
62293;BME280;48292;47.724;18.992;2022-09-11T19:26:36;97117.83;;;13.67;87.17
62293;BME280;48292;47.724;18.992;2022-09-11T19:31:39;97120.68;;;13.55;87.05
62293;BME280;48292;47.724;18.992;2022-09-11T19:36:42;97135.95;;;13.5;86.92
62293;BME280;48292;47.724;18.992;2022-09-11T19:41:44;97135.95;;;13.5;86.92
62293;BME280;48292;47.724;18.992;2022-09-11T19:46:46;97138.98;;;13.33;87.75
62293;BME280;48292;47.724;18.992;2022-09-11T19:51:49;97138.98;;;13.33;87.75
62293;BME280;48292;47.724;18.992;2022-09-11T19:56:51;97143.84;;;13.28;88.18
62293;BME280;48292;47.724;18.992;2022-09-11T20:01:53;97143.84;;;13.28;88.18
62293;BME280;48292;47.724;18.992;2022-09-11T20:06:56;97151.65;;;13.23;89.5
62293;BME280;48292;47.724;18.992;2022-09-11T20:11:58;97151.65;;;13.23;89.5
62293;BME280;48292;47.724;18.992;2022-09-11T20:17:02;97143.88;;;13.08;90.58
62293;BME280;48292;47.724;18.992;2022-09-11T20:22:04;97143.88;;;13.08;90.58
62293;BME280;48292;47.724;18.992;2022-09-11T20:27:06;97142.23;;;12.99;92.29
62293;BME280;48292;47.724;18.992;2022-09-11T20:32:07;97142.23;;;12.99;92.29
62293;BME280;48292;47.724;18.992;2022-09-11T20:37:09;97140.52;;;12.97;93.46
62293;BME280;48292;47.724;18.992;2022-09-11T20:42:11;97140.52;;;12.97;93.46
62293;BME280;48292;47.724;18.992;2022-09-11T20:47:13;97148.47;;;12.93;93.93
62293;BME280;48292;47.724;18.992;2022-09-11T20:52:15;97148.47;;;12.93;93.93
62293;BME280;48292;47.724;18.992;2022-09-11T20:57:17;97148.47;;;12.93;93.93
62293;BME280;48292;47.724;18.992;2022-09-11T21:02:19;97148.47;;;12.93;93.93
62293;BME280;48292;47.724;18.992;2022-09-11T21:07:21;97148.47;;;12.93;93.93
62293;BME280;48292;47.724;18.992;2022-09-11T21:12:23;97148.47;;;12.93;93.93
62293;BME280;48292;47.724;18.992;2022-09-11T21:17:24;97148.47;;;12.93;93.93
62293;BME280;48292;47.724;18.992;2022-09-11T21:22:26;97148.47;;;12.93;93.93
62293;BME280;48292;47.724;18.992;2022-09-11T21:27:28;97148.47;;;12.93;93.93
62293;BME280;48292;47.724;18.992;2022-09-11T21:32:29;97148.47;;;12.93;93.93
62293;BME280;48292;47.724;18.992;2022-09-11T21:37:31;97148.47;;;12.93;93.93
